createdAt,value
2023-01-13T00:00:16.855Z,1.10
2023-01-13T00:02:43.936Z,0.80
2023-01-13T00:05:11.430Z,0.60
2023-01-13T00:07:40.270Z,0.60
2023-01-13T00:10:11.553Z,0.60
2023-01-13T00:12:41.925Z,0.60
2023-01-13T00:15:09.987Z,0.60
2023-01-13T00:17:37.217Z,0.50
2023-01-13T00:20:04.920Z,0.60
2023-01-13T00:22:35.063Z,0.67
2023-01-13T00:25:04.278Z,0.60
2023-01-13T00:27:31.663Z,0.60
2023-01-13T00:29:59.249Z,0.67
2023-01-13T00:32:27.218Z,0.63
2023-01-13T00:34:54.592Z,0.63
2023-01-13T00:37:21.743Z,0.83
2023-01-13T00:39:48.769Z,0.63
2023-01-13T00:42:34.516Z,0.50
2023-01-13T00:45:01.500Z,0.70
2023-01-13T00:47:28.462Z,0.60
2023-01-13T00:49:55.689Z,0.60
2023-01-13T00:52:22.680Z,0.60
2023-01-13T00:54:49.755Z,0.63
2023-01-13T00:57:16.911Z,0.57
2023-01-13T00:59:43.887Z,0.70
2023-01-13T01:02:10.934Z,0.70
2023-01-13T01:04:38.044Z,0.70
2023-01-13T01:07:05.009Z,0.60
2023-01-13T01:09:34.663Z,0.63
2023-01-13T01:12:01.885Z,0.80
2023-01-13T01:14:28.947Z,0.77
2023-01-13T01:16:55.923Z,0.80
2023-01-13T01:19:23.639Z,0.60
2023-01-13T01:21:50.664Z,0.70
2023-01-13T01:24:17.738Z,0.80
2023-01-13T01:26:44.760Z,0.97
2023-01-13T01:29:15.301Z,0.60
2023-01-13T01:31:43.202Z,0.60
2023-01-13T01:34:10.269Z,0.87
2023-01-13T01:36:37.314Z,0.90
2023-01-13T01:39:05.184Z,0.80
2023-01-13T01:41:34.679Z,0.80
2023-01-13T01:44:43.681Z,0.80
2023-01-13T01:47:14.671Z,0.80
2023-01-13T01:49:43.112Z,0.90
2023-01-13T01:52:19.395Z,0.70
2023-01-13T01:55:10.941Z,0.73
2023-01-13T01:57:57.284Z,0.70
2023-01-13T02:00:26.220Z,0.70
2023-01-13T02:02:53.581Z,0.70
2023-01-13T02:05:21.179Z,0.90
2023-01-13T02:07:52.619Z,0.60
2023-01-13T02:10:23.827Z,0.70
2023-01-13T02:12:52.018Z,0.70
2023-01-13T02:15:56.193Z,0.90
2023-01-13T02:18:52.788Z,0.93
2023-01-13T02:22:04.350Z,0.60
2023-01-13T02:24:57.532Z,0.83
2023-01-13T02:28:07.838Z,1.03
2023-01-13T02:31:15.944Z,0.60
2023-01-13T02:34:21.918Z,0.67
2023-01-13T02:37:16.987Z,0.70
2023-01-13T02:39:59.102Z,0.70
2023-01-13T02:42:53.872Z,0.73
2023-01-13T02:45:29.700Z,0.80
2023-01-13T02:47:59.315Z,0.70
2023-01-13T02:50:34.744Z,0.70
2023-01-13T02:53:16.055Z,0.70
2023-01-13T02:55:53.857Z,0.80
2023-01-13T02:58:26.811Z,0.70
2023-01-13T03:00:55.127Z,0.70
2023-01-13T03:03:22.080Z,0.70
2023-01-13T03:05:59.317Z,0.60
2023-01-13T03:08:43.190Z,0.70
2023-01-13T03:11:13.481Z,0.80
2023-01-13T03:13:59.738Z,0.77
2023-01-13T03:17:02.578Z,0.80
2023-01-13T03:19:44.916Z,0.70
2023-01-13T03:22:30.726Z,0.70
2023-01-13T03:25:34.475Z,0.70
2023-01-13T03:28:19.751Z,0.80
2023-01-13T03:30:54.484Z,0.80
2023-01-13T03:33:29.712Z,1.00
2023-01-13T03:36:03.749Z,0.60
2023-01-13T03:38:54.475Z,0.70
2023-01-13T03:41:36.884Z,0.60
2023-01-13T03:44:23.949Z,1.00
2023-01-13T03:47:29.222Z,0.70
2023-01-13T03:50:12.100Z,0.83
2023-01-13T03:52:50.657Z,0.83
2023-01-13T03:55:23.118Z,1.00
2023-01-13T03:58:10.938Z,0.60
2023-01-13T04:00:46.776Z,0.63
2023-01-13T04:03:25.360Z,0.70
2023-01-13T04:06:04.694Z,0.80
2023-01-13T04:08:33.590Z,0.70
2023-01-13T04:11:10.951Z,0.97
2023-01-13T04:13:41.794Z,1.00
2023-01-13T04:16:11.213Z,0.90
2023-01-13T04:18:39.749Z,0.90
2023-01-13T04:21:07.827Z,1.53
2023-01-13T04:23:34.894Z,0.80
2023-01-13T04:26:01.805Z,0.80
2023-01-13T04:28:28.723Z,0.90
2023-01-13T04:30:55.626Z,1.00
2023-01-13T04:33:22.544Z,0.97
2023-01-13T04:35:49.499Z,1.20
2023-01-13T04:38:20.484Z,1.10
2023-01-13T04:40:47.766Z,0.70
2023-01-13T04:43:15.774Z,1.10
2023-01-13T04:45:43.706Z,1.13
2023-01-13T04:48:10.714Z,1.10
2023-01-13T04:50:37.655Z,1.20
2023-01-13T04:53:04.646Z,1.20
2023-01-13T04:55:32.090Z,1.40
2023-01-13T04:58:08.116Z,1.83
2023-01-13T05:00:35.770Z,1.13
2023-01-13T05:03:03.465Z,1.43
2023-01-13T05:05:30.969Z,1.23
2023-01-13T05:07:58.377Z,1.47
2023-01-13T05:10:26.404Z,1.40
2023-01-13T05:13:12.190Z,1.27
2023-01-13T05:15:59.839Z,1.20
2023-01-13T05:18:28.347Z,1.37
2023-01-13T05:20:55.241Z,1.30
2023-01-13T05:23:40.927Z,1.33
2023-01-13T05:26:07.914Z,1.20
2023-01-13T05:28:35.084Z,1.50
2023-01-13T05:31:02.070Z,1.50
2023-01-13T05:33:29.238Z,1.83
2023-01-13T05:35:56.121Z,3.53
2023-01-13T05:38:23.018Z,1.50
2023-01-13T05:41:08.197Z,2.10
2023-01-13T05:43:35.071Z,1.97
2023-01-13T05:46:09.989Z,2.60
2023-01-13T05:48:41.618Z,1.70
2023-01-13T05:51:11.786Z,1.80
2023-01-13T05:53:40.744Z,1.90
2023-01-13T05:56:09.332Z,1.90
2023-01-13T05:58:36.258Z,1.73
2023-01-13T06:01:08.909Z,1.50
2023-01-13T06:03:36.404Z,2.10
2023-01-13T06:06:04.232Z,2.00
2023-01-13T06:08:31.930Z,2.30
2023-01-13T06:10:58.845Z,1.83
2023-01-13T06:13:25.808Z,1.93
2023-01-13T06:15:57.775Z,2.23
2023-01-13T06:18:25.449Z,3.30
2023-01-13T06:20:52.358Z,2.23
2023-01-13T06:23:19.401Z,1.77
2023-01-13T06:26:00.283Z,1.30
2023-01-13T06:28:27.209Z,2.00
2023-01-13T06:31:00.661Z,1.50
2023-01-13T06:33:36.871Z,2.50
2023-01-13T06:36:11.585Z,1.67
2023-01-13T06:38:42.756Z,1.90
2023-01-13T06:41:09.958Z,1.93
2023-01-13T06:43:38.289Z,1.50
2023-01-13T06:46:05.564Z,2.00
2023-01-13T06:48:35.105Z,2.30
2023-01-13T06:51:03.663Z,1.80
2023-01-13T06:53:30.619Z,2.00
2023-01-13T06:55:57.527Z,2.43
2023-01-13T06:58:24.398Z,1.97
2023-01-13T07:00:51.681Z,2.17
2023-01-13T07:03:19.849Z,2.30
2023-01-13T07:05:54.206Z,1.97
2023-01-13T07:08:22.520Z,2.03
2023-01-13T07:10:49.449Z,2.50
2023-01-13T07:13:34.828Z,2.10
2023-01-13T07:16:04.947Z,1.97
2023-01-13T07:18:34.334Z,2.07
2023-01-13T07:21:07.559Z,2.53
2023-01-13T07:23:37.687Z,2.80
2023-01-13T07:26:05.481Z,2.30
2023-01-13T07:28:32.722Z,2.20
2023-01-13T07:31:00.248Z,2.57
2023-01-13T07:33:27.163Z,2.40
2023-01-13T07:36:00.376Z,2.70
2023-01-13T07:38:28.063Z,2.23
2023-01-13T07:40:55.230Z,2.47
2023-01-13T07:43:34.164Z,2.60
2023-01-13T07:46:04.856Z,3.00
2023-01-13T07:48:34.270Z,2.43
2023-01-13T07:51:07.198Z,3.03
2023-01-13T07:53:34.700Z,2.63
2023-01-13T07:56:03.831Z,3.63
2023-01-13T07:58:30.960Z,2.70
2023-01-13T08:00:58.050Z,3.73
2023-01-13T08:03:25.328Z,2.40
2023-01-13T08:05:52.253Z,2.67
2023-01-13T08:08:19.246Z,2.93
2023-01-13T08:10:46.206Z,2.53
2023-01-13T08:13:22.562Z,2.60
2023-01-13T08:15:52.356Z,2.53
2023-01-13T08:18:22.200Z,2.20
2023-01-13T08:20:52.871Z,2.43
2023-01-13T08:23:22.337Z,1.80
2023-01-13T08:25:50.174Z,1.70
2023-01-13T08:28:17.419Z,2.83
2023-01-13T08:30:44.513Z,1.80
2023-01-13T08:33:12.948Z,1.60
2023-01-13T08:35:41.283Z,1.77
2023-01-13T08:38:09.170Z,2.30
2023-01-13T08:40:36.482Z,1.80
2023-01-13T08:43:03.517Z,2.30
2023-01-13T08:45:30.422Z,5.80
2023-01-13T08:47:57.443Z,2.33
2023-01-13T08:50:24.351Z,1.93
2023-01-13T08:52:51.263Z,1.53
2023-01-13T08:55:18.161Z,2.17
2023-01-13T08:57:45.314Z,2.47
2023-01-13T09:00:13.769Z,2.70
2023-01-13T09:02:40.958Z,3.23
2023-01-13T09:05:09.246Z,3.33
2023-01-13T09:07:38.030Z,3.87
2023-01-13T09:10:07.412Z,5.20
2023-01-13T09:12:52.623Z,2.93
2023-01-13T09:15:19.587Z,3.00
2023-01-13T09:17:47.864Z,3.00
2023-01-13T09:20:14.954Z,2.57
2023-01-13T09:22:41.913Z,3.10
2023-01-13T09:25:09.566Z,2.83
2023-01-13T09:27:36.484Z,3.00
2023-01-13T09:30:04.154Z,3.00
2023-01-13T09:32:31.096Z,3.47
2023-01-13T09:35:01.201Z,3.30
2023-01-13T09:37:36.516Z,2.73
2023-01-13T09:40:19.488Z,2.53
2023-01-13T09:43:18.793Z,4.03
2023-01-13T09:46:04.497Z,3.07
2023-01-13T09:48:52.073Z,3.10
2023-01-13T09:51:34.007Z,2.90
2023-01-13T09:54:13.607Z,3.07
2023-01-13T09:56:40.559Z,3.10
2023-01-13T09:59:11.662Z,3.43
2023-01-13T10:02:04.827Z,3.67
2023-01-13T10:04:31.766Z,3.20
2023-01-13T10:07:03.679Z,3.13
2023-01-13T10:09:34.528Z,3.53
2023-01-13T10:12:21.356Z,3.50
2023-01-13T10:14:55.769Z,3.17
2023-01-13T10:17:50.742Z,2.83
2023-01-13T10:20:21.743Z,3.43
2023-01-13T10:23:05.048Z,3.17
2023-01-13T10:25:42.496Z,3.30
2023-01-13T10:28:13.576Z,2.87
2023-01-13T10:30:43.911Z,3.00
2023-01-13T10:33:10.700Z,3.03
2023-01-13T10:36:13.803Z,2.50
2023-01-13T10:38:47.692Z,3.30
2023-01-13T10:41:23.572Z,4.13
2023-01-13T10:44:07.782Z,3.13
2023-01-13T10:46:55.334Z,2.83
2023-01-13T10:49:32.610Z,3.50
2023-01-13T10:52:01.907Z,3.10
2023-01-13T10:54:29.773Z,2.93
2023-01-13T10:57:21.213Z,3.63
2023-01-13T10:59:48.819Z,3.70
2023-01-13T11:02:34.362Z,3.80
2023-01-13T11:05:24.781Z,3.03
2023-01-13T11:07:54.890Z,3.50
2023-01-13T11:10:28.959Z,2.80
2023-01-13T11:13:18.224Z,2.67
2023-01-13T11:15:53.902Z,2.93
2023-01-13T11:18:51.570Z,2.50
2023-01-13T11:21:28.339Z,3.00
2023-01-13T11:24:12.664Z,3.43
2023-01-13T11:26:57.117Z,3.03
2023-01-13T11:30:00.244Z,2.53
2023-01-13T11:32:31.556Z,2.33
2023-01-13T11:35:05.803Z,3.00
2023-01-13T11:37:37.486Z,3.27
2023-01-13T11:40:21.599Z,2.37
2023-01-13T11:43:01.901Z,3.00
2023-01-13T11:45:55.684Z,2.80
2023-01-13T11:48:27.500Z,2.30
2023-01-13T11:51:15.114Z,2.50
2023-01-13T11:54:24.315Z,2.53
2023-01-13T11:57:28.431Z,2.33
2023-01-13T12:00:29.955Z,2.30
2023-01-13T12:03:23.115Z,2.20
2023-01-13T12:06:23.579Z,2.20
2023-01-13T12:09:39.304Z,2.37
2023-01-13T12:12:39.114Z,2.60
2023-01-13T12:15:21.478Z,2.70
2023-01-13T12:18:25.645Z,2.20
2023-01-13T12:21:21.187Z,2.13
2023-01-13T12:24:27.272Z,3.57
2023-01-13T12:27:32.578Z,3.03
2023-01-13T12:30:04.274Z,2.33
2023-01-13T12:32:37.943Z,2.90
2023-01-13T12:35:27.977Z,3.70
2023-01-13T12:38:13.895Z,2.60
2023-01-13T12:41:17.516Z,2.50
2023-01-13T12:44:07.001Z,2.57
2023-01-13T12:46:36.550Z,2.90
2023-01-13T12:49:04.607Z,2.60
2023-01-13T12:52:07.173Z,2.40
2023-01-13T12:54:37.021Z,2.63
2023-01-13T12:57:25.433Z,3.77
2023-01-13T13:00:04.809Z,3.10
2023-01-13T13:02:38.469Z,2.60
2023-01-13T13:05:14.598Z,2.43
2023-01-13T13:07:49.645Z,2.40
2023-01-13T13:10:34.015Z,2.33
2023-01-13T13:13:18.352Z,2.33
2023-01-13T13:15:51.094Z,1.83
2023-01-13T13:18:17.866Z,3.10
2023-01-13T13:21:08.724Z,2.33
2023-01-13T13:24:04.476Z,2.60
2023-01-13T13:26:37.822Z,2.73
2023-01-13T13:29:36.084Z,2.50
2023-01-13T13:32:38.448Z,2.60
2023-01-13T13:35:14.022Z,2.00
2023-01-13T13:38:29.170Z,1.87
2023-01-13T13:41:14.936Z,2.20
2023-01-13T13:44:03.700Z,3.00
2023-01-13T13:46:49.790Z,3.03
2023-01-13T13:49:34.289Z,3.10
2023-01-13T13:52:11.693Z,2.27
2023-01-13T13:54:47.462Z,2.90
2023-01-13T13:57:20.592Z,2.00
2023-01-13T13:59:55.881Z,1.90
2023-01-13T14:02:31.159Z,2.57
2023-01-13T14:05:20.307Z,2.00
2023-01-13T14:08:01.069Z,2.53
2023-01-13T14:10:35.558Z,2.30
2023-01-13T14:13:21.849Z,2.40
2023-01-13T14:15:56.678Z,2.03
2023-01-13T14:18:24.592Z,2.50
2023-01-13T14:21:00.919Z,2.33
2023-01-13T14:23:32.874Z,1.80
2023-01-13T14:26:12.829Z,2.30
2023-01-13T14:28:40.982Z,3.03
2023-01-13T14:31:09.542Z,2.53
2023-01-13T14:33:43.170Z,2.80
2023-01-13T14:36:31.861Z,2.10
2023-01-13T14:39:04.774Z,3.83
2023-01-13T14:41:42.634Z,2.80
2023-01-13T14:44:35.008Z,2.33
2023-01-13T14:47:33.711Z,2.30
2023-01-13T14:50:19.807Z,2.40
2023-01-13T14:52:54.659Z,2.80
2023-01-13T14:55:31.686Z,2.27
2023-01-13T14:58:37.347Z,2.37
2023-01-13T15:01:28.829Z,2.53
2023-01-13T15:04:15.813Z,2.23
2023-01-13T15:06:47.746Z,2.60
2023-01-13T15:09:17.828Z,2.20
2023-01-13T15:11:44.830Z,2.50
2023-01-13T15:14:11.913Z,1.93
2023-01-13T15:16:38.800Z,2.90
2023-01-13T15:19:05.729Z,3.13
2023-01-13T15:21:32.685Z,2.27
2023-01-13T15:23:59.890Z,2.50
2023-01-13T15:26:29.732Z,2.80
2023-01-13T15:28:58.417Z,2.20
2023-01-13T15:31:27.095Z,2.43
2023-01-13T15:33:54.309Z,3.10
2023-01-13T15:36:31.041Z,2.60
2023-01-13T15:38:59.670Z,2.33
2023-01-13T15:41:45.409Z,2.87
2023-01-13T15:44:33.617Z,2.30
2023-01-13T15:47:05.798Z,2.80
2023-01-13T15:49:40.967Z,2.50
2023-01-13T15:52:23.947Z,2.73
2023-01-13T15:54:52.185Z,2.40
2023-01-13T15:57:34.302Z,2.30
2023-01-13T16:00:08.072Z,2.50
2023-01-13T16:02:35.084Z,2.70
2023-01-13T16:05:02.032Z,2.20
2023-01-13T16:07:28.889Z,2.97
2023-01-13T16:09:56.492Z,2.83
2023-01-13T16:12:23.393Z,2.70
2023-01-13T16:14:50.386Z,2.40
2023-01-13T16:17:27.303Z,2.13
2023-01-13T16:19:54.214Z,2.90
2023-01-13T16:22:21.222Z,3.03
2023-01-13T16:24:48.411Z,2.60
2023-01-13T16:27:19.613Z,3.10
2023-01-13T16:29:47.315Z,2.60
2023-01-13T16:32:14.241Z,3.00
2023-01-13T16:34:41.662Z,2.80
2023-01-13T16:37:26.770Z,2.43
2023-01-13T16:39:56.597Z,2.50
2023-01-13T16:42:25.473Z,2.87
2023-01-13T16:44:52.844Z,4.20
2023-01-13T16:47:20.610Z,3.47
2023-01-13T16:49:47.508Z,2.77
2023-01-13T16:52:14.397Z,3.00
2023-01-13T16:54:41.392Z,2.73
2023-01-13T16:57:13.292Z,3.10
2023-01-13T16:59:40.227Z,3.50
2023-01-13T17:02:14.603Z,2.87
2023-01-13T17:04:41.492Z,3.30
2023-01-13T17:07:09.875Z,3.17
2023-01-13T17:09:36.790Z,3.57
2023-01-13T17:12:03.880Z,3.40
2023-01-13T17:14:30.756Z,2.67
2023-01-13T17:17:00.677Z,3.33
2023-01-13T17:19:27.730Z,3.03
2023-01-13T17:21:54.685Z,2.50
2023-01-13T17:24:21.665Z,2.90
2023-01-13T17:26:50.927Z,2.57
2023-01-13T17:29:23.308Z,4.07
2023-01-13T17:31:51.536Z,2.60
2023-01-13T17:34:19.685Z,2.73
2023-01-13T17:36:46.800Z,3.00
2023-01-13T17:39:21.367Z,2.37
2023-01-13T17:41:48.508Z,2.40
2023-01-13T17:44:18.591Z,2.80
2023-01-13T17:46:46.106Z,2.50
2023-01-13T17:49:15.601Z,3.00
2023-01-13T17:51:42.669Z,2.83
2023-01-13T17:54:13.243Z,4.10
2023-01-13T17:56:41.406Z,3.30
2023-01-13T17:59:10.625Z,3.60
2023-01-13T18:01:39.122Z,2.53
2023-01-13T18:04:06.998Z,3.23
2023-01-13T18:06:34.133Z,3.20
2023-01-13T18:09:01.343Z,2.50
2023-01-13T18:11:28.391Z,3.10
2023-01-13T18:14:01.307Z,2.40
2023-01-13T18:16:30.441Z,2.80
2023-01-13T18:19:18.388Z,2.93
2023-01-13T18:22:05.691Z,2.80
2023-01-13T18:24:51.641Z,3.20
2023-01-13T18:27:24.178Z,2.20
2023-01-13T18:29:54.396Z,2.57
2023-01-13T18:32:23.495Z,2.40
2023-01-13T18:34:53.951Z,2.20
2023-01-13T18:37:25.705Z,2.37
2023-01-13T18:39:52.750Z,2.50
2023-01-13T18:42:38.015Z,2.40
2023-01-13T18:45:05.385Z,3.07
2023-01-13T18:47:33.556Z,2.80
2023-01-13T18:50:00.572Z,2.90
2023-01-13T18:52:27.682Z,2.83
2023-01-13T18:54:54.580Z,3.13
2023-01-13T18:57:22.218Z,3.63
2023-01-13T18:59:49.109Z,3.00
2023-01-13T19:02:19.971Z,2.90
2023-01-13T19:04:47.430Z,2.70
2023-01-13T19:07:22.101Z,2.70
2023-01-13T19:09:50.036Z,3.17
2023-01-13T19:12:26.047Z,3.27
2023-01-13T19:14:54.998Z,2.80
2023-01-13T19:17:24.165Z,2.77
2023-01-13T19:19:54.729Z,3.00
2023-01-13T19:22:27.255Z,2.30
2023-01-13T19:24:54.582Z,2.50
2023-01-13T19:27:22.073Z,3.47
2023-01-13T19:29:52.487Z,2.77
2023-01-13T19:32:23.097Z,3.00
2023-01-13T19:34:51.095Z,2.97
2023-01-13T19:37:19.549Z,3.87
2023-01-13T19:39:47.011Z,2.90
2023-01-13T19:42:32.953Z,3.77
2023-01-13T19:45:18.424Z,3.37
2023-01-13T19:47:46.067Z,3.53
2023-01-13T19:50:14.354Z,4.07
2023-01-13T19:52:42.649Z,3.97
2023-01-13T19:55:12.399Z,3.57
2023-01-13T19:57:40.714Z,3.27
2023-01-13T20:00:09.304Z,3.40
2023-01-13T20:02:47.900Z,3.50
2023-01-13T20:05:21.042Z,3.00
2023-01-13T20:07:49.748Z,3.90
2023-01-13T20:10:18.526Z,2.83
2023-01-13T20:12:45.521Z,2.17
2023-01-13T20:15:12.418Z,2.07
2023-01-13T20:17:40.595Z,2.90
2023-01-13T20:20:09.606Z,2.10
2023-01-13T20:22:40.537Z,1.97
2023-01-13T20:25:08.734Z,2.10
2023-01-13T20:27:35.852Z,1.90
2023-01-13T20:30:04.022Z,2.60
2023-01-13T20:32:30.943Z,2.10
2023-01-13T20:34:57.817Z,1.40
2023-01-13T20:37:24.895Z,1.63
2023-01-13T20:39:51.782Z,2.00
2023-01-13T20:42:30.613Z,1.67
2023-01-13T20:45:01.224Z,1.60
2023-01-13T20:47:29.817Z,2.30
2023-01-13T20:49:56.718Z,2.37
2023-01-13T20:52:23.880Z,1.90
2023-01-13T20:54:50.836Z,2.10
2023-01-13T20:57:18.153Z,2.43
2023-01-13T20:59:45.283Z,2.23
2023-01-13T21:02:14.891Z,3.10
2023-01-13T21:04:41.837Z,2.50
2023-01-13T21:07:09.379Z,1.97
2023-01-13T21:09:36.624Z,1.90
2023-01-13T21:12:23.705Z,1.90
2023-01-13T21:15:09.105Z,2.23
2023-01-13T21:18:08.347Z,2.00
2023-01-13T21:20:37.192Z,1.57
2023-01-13T21:23:04.943Z,1.87
2023-01-13T21:25:35.374Z,2.00
2023-01-13T21:28:06.246Z,1.57
2023-01-13T21:30:33.709Z,1.87
2023-01-13T21:33:00.930Z,2.13
2023-01-13T21:35:27.850Z,2.07
2023-01-13T21:37:54.763Z,1.60
2023-01-13T21:40:21.663Z,1.83
2023-01-13T21:43:06.950Z,1.67
2023-01-13T21:45:52.344Z,1.80
2023-01-13T21:48:19.290Z,1.37
2023-01-13T21:50:46.209Z,1.53
2023-01-13T21:53:13.096Z,1.90
2023-01-13T21:55:40.196Z,1.60
2023-01-13T21:58:11.578Z,1.80
2023-01-13T22:00:40.120Z,1.80
2023-01-13T22:03:09.635Z,1.83
2023-01-13T22:05:36.767Z,1.63
2023-01-13T22:08:04.756Z,1.57
2023-01-13T22:10:31.803Z,1.90
2023-01-13T22:13:21.335Z,1.57
2023-01-13T22:15:48.240Z,1.70
2023-01-13T22:18:15.168Z,1.37
2023-01-13T22:20:42.098Z,1.60
2023-01-13T22:23:09.103Z,1.27
2023-01-13T22:25:36.050Z,1.53
2023-01-13T22:28:06.005Z,2.00
2023-01-13T22:30:33.333Z,1.83
2023-01-13T22:33:00.615Z,1.30
2023-01-13T22:35:27.559Z,1.17
2023-01-13T22:37:54.470Z,1.40
2023-01-13T22:40:21.401Z,1.63
2023-01-13T22:42:48.294Z,1.60
2023-01-13T22:45:15.183Z,1.40
2023-01-13T22:47:42.239Z,1.43
2023-01-13T22:50:10.217Z,1.60
2023-01-13T22:52:37.186Z,1.70
2023-01-13T22:55:06.838Z,1.90
2023-01-13T22:57:36.734Z,1.43
2023-01-13T23:00:14.816Z,1.53
2023-01-13T23:02:41.965Z,1.40
2023-01-13T23:05:09.257Z,1.27
2023-01-13T23:07:36.313Z,2.00
2023-01-13T23:10:04.298Z,2.00
2023-01-13T23:12:31.412Z,1.53
2023-01-13T23:14:58.294Z,1.70
2023-01-13T23:17:25.201Z,1.30
2023-01-13T23:19:52.073Z,1.07
2023-01-13T23:22:19.199Z,1.37
2023-01-13T23:24:46.209Z,1.63
2023-01-13T23:27:13.138Z,1.60
2023-01-13T23:29:40.060Z,1.40
2023-01-13T23:32:06.956Z,1.30
2023-01-13T23:34:33.823Z,1.50
2023-01-13T23:37:00.733Z,1.27
2023-01-13T23:39:27.630Z,1.50
2023-01-13T23:41:54.893Z,1.50
2023-01-13T23:44:21.860Z,1.33
2023-01-13T23:46:48.763Z,1.80
2023-01-13T23:49:15.661Z,2.07
2023-01-13T23:51:42.631Z,1.40
2023-01-13T23:54:09.756Z,1.70
2023-01-13T23:56:39.452Z,1.20
2023-01-13T23:59:06.937Z,1.10
